首页
METAR-TAF:

METAR-TAF

机场 :

尼诺伊·阿基诺国际机场

马尼拉, 菲律宾

纬度: 14-31N, 经度: 121-00E, 海拔: 14米

当前天气观测

该预报发布于31分钟前的21:00 UTC
风速5节,风向东转东北
温度 25°C
湿度 100%
气压 1012 hPa
能见度10公里或以上
少量云层高于2500英尺

METAR: RPLL 222100Z 06005KT 9999 FEW025 25/25 Q1012 NOSIG RMK A2988

时间: 05:31 (21:31 UTC)

预报

该预报发布于4小时和31分钟前的17:00 UTC
预报有效从22日的 18点(UTC)到 23日的 24点(UTC)
风速6节,风向
能见度10公里或以上
少量云层高于2500英尺
散云层高于10000英尺
短暂存在
从 22日的 18点(UTC)到 22日的 24点(UTC)
风速5节,风向
少量云层高于2500英尺
散云层高于30000英尺
短暂存在
从 23日的 03点(UTC)到 23日的 09点(UTC)
风速10节,风向东转东南
少量云层高于2300英尺, 积雨云.
少量云层高于2500英尺
多云层高于30000英尺

TAF: RPLL 221700Z 2218/2324 10006KT 9999 FEW025 SCT100 TX33/2306Z TN26/2221Z TEMPO 2218/2224 08005KT FEW025 SCT300 TEMPO 2303/2309 11010KT FEW023CB FEW025 BKN300

超过4000个机场的气象观测和天气预报(METAR&TAF报告)。

可查询的气象台以黄色和红色小点在地图上表示。

将鼠标移到小点上方,可查看气象台名称。

然后点击查看天气观测和预报。

如需切换地图:点击带黑十字的绿色按钮放大地图;点击带横线的绿色按钮缩小地图;或者点击绿色箭头查看邻近地区的地图。


METAR-TAF: